Terminal Aerodrome Forecast
Issued by NWS

Home | Current Version | Previous Version | Text Only | Print | Product List | Glossary On
Versions: 1 2 3 4 5 6 7 8 9 10 11 12 13
000
FTUS45 KABQ 242342
TAFGUP
TAF
KGUP 242342Z 2500/2524 08011KT P6SM VCSH SCT090 BKN140
      TEMPO 2502/2505 VRB20G30KT -TSRA BKN080CB
     FM250500 07008KT P6SM VCSH SCT100 BKN150
     FM250800 VRB05KT P6SM BKN140
     FM251500 07008KT P6SM FEW140
     FM252100 13011KT P6SM VCTS SCT080CB BKN120=

USA.gov is the U.S. government's official web portal to all federal, state and local government web resources and services.